Aviation Digital Data Service (ADDS)

Output produced by METARs form (0237 UTC 18 June 2019)
found at http://www.aviationweather.gov/metar/data/
 
Forecast for: SPZO (CUZCO/VELAZCO AS, PE)
Text: TAF SPZO 172300Z 1800/1824 VRB05KT 9999 NSC TX22/1819Z TN03/1811Z
Forecast period: 0000 UTC 18 June 2019 to 0000 UTC 19 June 2019
Forecast type: FROM: standard forecast or significant change
Winds: variable direction winds at 6 MPH (5 knots; 2.6 m/s)
Visibility: 6 or more miles 10+ km)
Ceiling: unknown
Clouds: missing
Weather: no significant weather forecast for this period
Text: TEMPO 1819/1823 29012KT
Forecast period: 1900 to 2300 UTC 18 June 2019
Forecast type: TEMPORARY: The following changes expected for less than half the time period
Winds: from the WNW (290 degrees) at 14 MPH (12 knots; 6.2 m/s)
Visibility: missing
Ceiling: unknown
Clouds: missing
Weather: no significant weather forecast for this period